Time;durP1;ratioP1;P1;durP2;ratioP2;P2;SDS_P1;SDS_P2;PMS_P1;PMS_P2;Temp;Humidity;BMP_temperature;BMP_pressure;BME280_temperature;BME280_humidity;BME280_pressure;Samples;Min_cycle;Max_cycle;Signal;HPM_P1;HPM_P2
2021/08/29 00:02:13;;;;;;;4.68;1.65;;;16.10;92.70;;;;;;5072136;28;20086;-62
2021/08/29 00:04:39;;;;;;;3.08;1.60;;;16.10;92.80;;;;;;5054196;28;20020;-62
2021/08/29 00:07:05;;;;;;;6.05;2.22;;;16.10;92.90;;;;;;5054035;28;20471;-62
2021/08/29 00:09:30;;;;;;;5.65;1.92;;;16.10;93.00;;;;;;5072083;28;20024;-62
2021/08/29 00:11:56;;;;;;;2.90;1.55;;;16.10;93.10;;;;;;5072063;28;20025;-63
2021/08/29 00:14:22;;;;;;;3.67;1.27;;;16.10;93.10;;;;;;5072245;28;20032;-62
2021/08/29 00:16:47;;;;;;;4.68;1.45;;;16.10;93.10;;;;;;5056462;28;20021;-62
2021/08/29 00:19:13;;;;;;;3.03;1.33;;;16.20;93.20;;;;;;5057667;28;20050;-62
2021/08/29 00:21:38;;;;;;;3.05;1.23;;;16.20;93.20;;;;;;5057578;28;20021;-62
2021/08/29 00:24:04;;;;;;;5.05;1.23;;;16.20;93.20;;;;;;5075342;28;20024;-62
2021/08/29 00:26:30;;;;;;;3.08;1.38;;;16.20;93.20;;;;;;5075582;28;20476;-62
2021/08/29 00:28:56;;;;;;;3.88;1.73;;;16.20;93.30;;;;;;5075496;28;20029;-62
2021/08/29 00:31:21;;;;;;;4.47;1.50;;;16.20;93.30;;;;;;5075463;28;20104;-63
2021/08/29 00:33:47;;;;;;;3.42;1.75;;;16.20;93.30;;;;;;5057453;28;20056;-62
2021/08/29 00:36:12;;;;;;;3.60;1.73;;;16.20;93.40;;;;;;5057054;28;20024;-62
2021/08/29 00:38:38;;;;;;;3.53;1.33;;;16.20;93.40;;;;;;5056237;28;20029;-62
2021/08/29 00:41:10;;;;;;;2.55;1.23;;;16.20;93.40;;;;;;5056221;28;20383;-62
2021/08/29 00:43:37;;;;;;;3.20;1.30;;;16.30;93.40;;;;;;5075198;28;20111;-62
2021/08/29 00:46:05;;;;;;;2.53;1.20;;;16.20;93.50;;;;;;5057125;28;20480;-62
2021/08/29 00:48:31;;;;;;;4.13;1.40;;;16.20;93.50;;;;;;5075288;28;20054;-62
2021/08/29 00:50:56;;;;;;;5.38;1.63;;;16.20;93.60;;;;;;5056957;28;20456;-62
2021/08/29 00:53:23;;;;;;;2.47;1.30;;;16.20;93.60;;;;;;5056942;28;20059;-62
2021/08/29 00:55:50;;;;;;;4.82;1.17;;;16.20;93.60;;;;;;5074697;28;20076;-62
2021/08/29 00:58:17;;;;;;;3.80;1.33;;;16.30;93.60;;;;;;5075042;28;20078;-62
2021/08/29 01:00:44;;;;;;;2.92;1.25;;;16.30;93.70;;;;;;5057029;28;20028;-62
2021/08/29 01:03:19;;;;;;;3.50;1.20;;;16.30;93.70;;;;;;5074764;28;20032;-62
2021/08/29 01:05:50;;;;;;;3.25;1.20;;;16.30;93.70;;;;;;5074797;28;20020;-62
2021/08/29 01:08:17;;;;;;;3.38;1.65;;;16.30;93.70;;;;;;5056887;28;20017;-62
2021/08/29 01:10:46;;;;;;;4.40;2.10;;;16.30;93.70;;;;;;5056912;28;20036;-62
2021/08/29 01:13:25;;;;;;;3.05;1.13;;;16.30;93.70;;;;;;5056667;28;20021;-62
2021/08/29 01:15:54;;;;;;;3.47;1.13;;;16.30;93.70;;;;;;5074395;28;20511;-62
2021/08/29 01:18:22;;;;;;;4.03;1.38;;;16.30;93.80;;;;;;5056655;28;20427;-62
2021/08/29 01:21:07;;;;;;;3.25;1.52;;;16.30;93.80;;;;;;5074523;28;20017;-62
2021/08/29 01:23:39;;;;;;;3.05;1.40;;;16.40;94.10;;;;;;5074616;28;20025;-62
2021/08/29 01:26:34;;;;;;;3.05;1.42;;;16.30;93.80;;;;;;5052757;28;20538;-62
2021/08/29 01:29:02;;;;;;;5.35;1.90;;;16.40;93.80;;;;;;5053815;28;20017;-62
2021/08/29 01:31:30;;;;;;;4.68;2.05;;;16.30;93.90;;;;;;5068027;28;20051;-62
2021/08/29 01:34:02;;;;;;;5.57;1.75;;;16.40;93.90;;;;;;5074138;28;20037;-63
2021/08/29 01:36:29;;;;;;;5.13;1.40;;;16.40;93.90;;;;;;5074203;28;20016;-62
2021/08/29 01:38:55;;;;;;;3.65;1.48;;;16.40;94.00;;;;;;5074244;28;20333;-62
2021/08/29 01:41:22;;;;;;;4.47;1.70;;;16.40;94.00;;;;;;5073841;28;20027;-62
2021/08/29 01:43:49;;;;;;;4.32;1.60;;;16.40;94.00;;;;;;5074017;28;20024;-62
2021/08/29 01:46:16;;;;;;;3.33;1.40;;;16.40;94.10;;;;;;5073908;28;20025;-62
2021/08/29 01:48:43;;;;;;;4.05;1.77;;;16.40;94.20;;;;;;5074050;28;20017;-62
2021/08/29 01:51:10;;;;;;;3.97;1.55;;;16.30;94.20;;;;;;5073829;28;20032;-62
2021/08/29 01:53:36;;;;;;;2.63;1.50;;;16.30;94.20;;;;;;5073556;28;20024;-62
2021/08/29 01:56:03;;;;;;;5.75;1.73;;;16.40;94.30;;;;;;5073625;28;20040;-62
2021/08/29 01:58:28;;;;;;;3.17;1.45;;;16.40;94.30;;;;;;5073828;28;20031;-62
2021/08/29 02:00:57;;;;;;;3.40;1.60;;;16.40;94.30;;;;;;5055693;28;20443;-62
2021/08/29 02:03:24;;;;;;;6.67;1.53;;;16.40;94.30;;;;;;5055953;28;20361;-62
2021/08/29 02:05:54;;;;;;;3.85;1.75;;;16.30;94.30;;;;;;5055472;28;20270;-63
2021/08/29 02:08:20;;;;;;;4.70;1.48;;;16.40;94.40;;;;;;5073582;28;20376;-62
2021/08/29 02:10:49;;;;;;;4.90;1.52;;;16.40;94.40;;;;;;5055574;28;20111;-62
2021/08/29 02:13:18;;;;;;;5.35;1.67;;;16.40;94.50;;;;;;5055750;28;20031;-63
2021/08/29 02:15:52;;;;;;;3.30;1.50;;;16.40;94.50;;;;;;5055582;28;20389;-62
2021/08/29 02:18:21;;;;;;;3.55;1.60;;;16.40;94.60;;;;;;5073256;28;20103;-62
2021/08/29 02:20:48;;;;;;;2.70;1.38;;;16.40;94.60;;;;;;5055473;28;20028;-63
2021/08/29 02:23:16;;;;;;;2.97;1.48;;;16.40;94.60;;;;;;5055310;28;20025;-62
2021/08/29 02:25:49;;;;;;;5.13;1.63;;;16.40;94.60;;;;;;5073141;28;20059;-62
2021/08/29 02:28:15;;;;;;;5.95;1.77;;;16.40;94.60;;;;;;5055386;28;20020;-62
2021/08/29 02:30:43;;;;;;;7.13;1.80;;;16.40;94.70;;;;;;5073062;28;20031;-62
2021/08/29 02:33:09;;;;;;;3.60;1.75;;;16.40;94.70;;;;;;5073135;28;20028;-62
2021/08/29 02:35:37;;;;;;;3.38;1.30;;;16.40;94.70;;;;;;5073019;28;20024;-62
2021/08/29 02:38:04;;;;;;;5.05;1.90;;;16.40;94.70;;;;;;5055144;28;20119;-62
2021/08/29 02:40:34;;;;;;;2.97;1.58;;;16.40;94.70;;;;;;5073451;28;20032;-62
2021/08/29 02:43:00;;;;;;;5.68;1.90;;;16.40;94.80;;;;;;5054712;28;20074;-63
2021/08/29 02:45:27;;;;;;;5.25;2.00;;;16.40;94.80;;;;;;5072846;28;20557;-63
2021/08/29 02:47:53;;;;;;;4.10;1.88;;;16.40;94.80;;;;;;5073139;28;20062;-63
2021/08/29 02:50:21;;;;;;;6.18;1.85;;;16.40;94.80;;;;;;5072962;28;20024;-62
2021/08/29 02:52:46;;;;;;;4.35;1.73;;;16.40;94.80;;;;;;5054867;28;20040;-62
2021/08/29 02:55:15;;;;;;;4.15;1.70;;;16.40;94.90;;;;;;5072575;28;20048;-62
2021/08/29 02:57:44;;;;;;;4.00;1.67;;;16.40;94.90;;;;;;5054806;28;20031;-62
2021/08/29 03:00:12;;;;;;;3.88;1.70;;;16.40;94.90;;;;;;5054815;28;20033;-63
2021/08/29 03:02:39;;;;;;;2.97;1.88;;;16.40;94.90;;;;;;5054721;28;20530;-62
2021/08/29 03:05:05;;;;;;;4.78;1.80;;;16.40;94.90;;;;;;5054869;28;20021;-63
2021/08/29 03:07:30;;;;;;;8.60;2.13;;;16.40;94.90;;;;;;5054760;28;20031;-62
2021/08/29 03:09:56;;;;;;;4.38;1.80;;;16.40;94.90;;;;;;5072830;28;20077;-62
2021/08/29 03:12:22;;;;;;;6.60;2.53;;;16.50;94.90;;;;;;5054365;28;20031;-62
2021/08/29 03:14:48;;;;;;;3.25;1.83;;;16.40;94.90;;;;;;5072726;28;20032;-62
2021/08/29 03:17:14;;;;;;;6.93;2.88;;;16.50;95.00;;;;;;5072642;28;20067;-62
2021/08/29 03:19:40;;;;;;;6.05;2.00;;;16.50;95.00;;;;;;5054626;28;20060;-62
2021/08/29 03:22:06;;;;;;;6.25;2.75;;;16.40;95.00;;;;;;5072512;28;20071;-62
2021/08/29 03:24:32;;;;;;;4.63;2.00;;;16.40;95.00;;;;;;5054712;28;20048;-62
2021/08/29 03:26:57;;;;;;;5.55;2.40;;;16.40;95.00;;;;;;5072367;28;20380;-62
2021/08/29 03:29:23;;;;;;;4.90;2.55;;;16.40;95.00;;;;;;5072879;28;20032;-62
2021/08/29 03:31:48;;;;;;;6.45;2.17;;;16.40;95.00;;;;;;5072501;28;20391;-62
2021/08/29 03:34:17;;;;;;;4.80;2.08;;;16.40;95.00;;;;;;5054692;28;20618;-62
2021/08/29 03:36:44;;;;;;;4.63;1.90;;;16.40;95.00;;;;;;5072536;28;20025;-62
2021/08/29 03:39:11;;;;;;;6.57;1.90;;;16.40;95.00;;;;;;5054600;28;20442;-62
2021/08/29 03:41:42;;;;;;;2.97;1.77;;;16.40;95.00;;;;;;5054186;28;20032;-62
2021/08/29 03:44:09;;;;;;;4.22;2.22;;;16.40;95.00;;;;;;5054421;28;20028;-62
2021/08/29 03:46:35;;;;;;;2.63;1.90;;;16.40;95.00;;;;;;5054327;28;20503;-62
2021/08/29 03:49:01;;;;;;;4.68;1.70;;;16.40;95.00;;;;;;5072438;28;20032;-62
2021/08/29 03:51:27;;;;;;;3.45;1.85;;;16.40;95.00;;;;;;5074641;28;20033;-63
2021/08/29 03:53:53;;;;;;;5.00;1.95;;;16.40;94.90;;;;;;5075944;28;20569;-62
2021/08/29 03:56:19;;;;;;;3.85;1.95;;;16.40;95.20;;;;;;5075975;28;20029;-62
2021/08/29 03:58:45;;;;;;;7.40;2.30;;;16.40;94.90;;;;;;5075945;28;20071;-62
2021/08/29 04:01:10;;;;;;;3.72;1.80;;;16.40;94.90;;;;;;5075960;28;20115;-62
2021/08/29 04:03:36;;;;;;;4.40;2.22;;;16.40;94.90;;;;;;5075901;28;20033;-62
2021/08/29 04:06:03;;;;;;;3.45;1.75;;;16.40;94.90;;;;;;5075846;28;20024;-62
2021/08/29 04:08:37;;;;;;;3.83;1.70;;;16.40;94.90;;;;;;5057939;28;20431;-62
2021/08/29 04:11:05;;;;;;;2.50;1.35;;;16.40;94.80;;;;;;5075854;28;20468;-62
2021/08/29 04:13:32;;;;;;;4.47;1.88;;;16.40;94.80;;;;;;5075666;28;20029;-62
2021/08/29 04:16:01;;;;;;;4.45;2.30;;;16.40;94.80;;;;;;5075764;28;20013;-62
2021/08/29 04:18:27;;;;;;;4.78;2.25;;;16.40;94.80;;;;;;5057054;28;20021;-62
2021/08/29 04:20:53;;;;;;;5.97;2.60;;;16.40;94.80;;;;;;5067494;28;20079;-62
2021/08/29 04:23:19;;;;;;;3.10;1.70;;;16.40;94.80;;;;;;5036882;28;20017;-62
2021/08/29 04:25:45;;;;;;;5.05;2.03;;;16.40;94.80;;;;;;5037350;28;20021;-62
2021/08/29 04:28:11;;;;;;;4.07;1.85;;;16.40;94.90;;;;;;5055571;28;20477;-62
2021/08/29 04:30:37;;;;;;;4.18;2.10;;;16.40;94.90;;;;;;5037420;28;20039;-62
2021/08/29 04:33:02;;;;;;;3.80;1.67;;;16.40;94.90;;;;;;5055423;28;20025;-62
2021/08/29 04:35:28;;;;;;;3.53;1.80;;;16.40;94.90;;;;;;5070221;28;20025;-62
2021/08/29 04:37:56;;;;;;;3.20;1.70;;;16.40;94.90;;;;;;5057224;28;20066;-62
2021/08/29 04:40:22;;;;;;;4.55;1.95;;;16.40;94.90;;;;;;5075350;28;20020;-62
2021/08/29 04:42:47;;;;;;;3.63;2.13;;;16.40;95.00;;;;;;5057277;28;20035;-63
2021/08/29 04:45:13;;;;;;;3.10;1.67;;;16.40;94.90;;;;;;5057247;28;20020;-62
2021/08/29 04:47:38;;;;;;;4.30;1.95;;;16.40;94.90;;;;;;5057191;28;20059;-62
2021/08/29 04:50:04;;;;;;;4.85;1.90;;;16.40;94.90;;;;;;5057204;28;20052;-62
2021/08/29 04:52:30;;;;;;;3.97;1.48;;;16.40;94.90;;;;;;5056840;28;20020;-63
2021/08/29 04:54:56;;;;;;;3.95;1.83;;;16.40;94.90;;;;;;5056943;28;20044;-62
2021/08/29 04:57:22;;;;;;;6.10;2.55;;;16.40;94.90;;;;;;5057059;28;20030;-62
2021/08/29 04:59:47;;;;;;;5.40;1.60;;;16.40;94.90;;;;;;5074851;28;20071;-62
2021/08/29 05:02:13;;;;;;;3.80;1.35;;;16.50;94.90;;;;;;5055719;28;20036;-62
2021/08/29 05:04:38;;;;;;;3.63;1.55;;;16.50;94.90;;;;;;5056821;28;20088;-62
2021/08/29 05:07:04;;;;;;;5.70;1.65;;;16.50;94.90;;;;;;5074635;28;20052;-62
2021/08/29 05:09:30;;;;;;;4.18;2.00;;;16.50;94.90;;;;;;5056950;28;20050;-62
2021/08/29 05:11:55;;;;;;;4.10;1.63;;;16.50;94.90;;;;;;5056822;28;20043;-62
2021/08/29 05:14:21;;;;;;;4.63;1.73;;;16.50;94.90;;;;;;5074516;28;20024;-62
2021/08/29 05:16:46;;;;;;;4.20;2.05;;;16.50;95.00;;;;;;5074570;28;20031;-62
2021/08/29 05:19:12;;;;;;;5.25;2.17;;;16.50;95.00;;;;;;5074539;28;20544;-63
2021/08/29 05:21:37;;;;;;;4.90;2.15;;;16.50;95.00;;;;;;5074373;28;20094;-62
2021/08/29 05:24:03;;;;;;;3.75;1.38;;;16.50;95.00;;;;;;5056497;28;20541;-62
2021/08/29 05:26:29;;;;;;;3.75;1.48;;;16.50;95.00;;;;;;5074409;28;20024;-62
2021/08/29 05:28:54;;;;;;;2.80;1.33;;;16.50;95.00;;;;;;5074405;28;20043;-62
2021/08/29 05:31:20;;;;;;;5.78;1.52;;;16.50;95.10;;;;;;5074123;28;20028;-62
2021/08/29 05:33:45;;;;;;;6.80;1.73;;;16.60;95.10;;;;;;5056266;28;20036;-62
2021/08/29 05:36:11;;;;;;;3.35;1.80;;;16.60;95.10;;;;;;5074139;28;20078;-62
2021/08/29 05:38:36;;;;;;;4.18;1.67;;;16.60;95.10;;;;;;5074175;28;20050;-62
2021/08/29 05:41:02;;;;;;;4.60;1.70;;;16.60;95.10;;;;;;5055679;28;20064;-62
2021/08/29 05:43:27;;;;;;;2.90;1.30;;;16.60;95.20;;;;;;5055749;28;20337;-62
2021/08/29 05:45:53;;;;;;;3.78;1.42;;;16.60;95.20;;;;;;5071077;28;20032;-63
2021/08/29 05:48:18;;;;;;;6.53;1.90;;;16.70;95.20;;;;;;5067731;28;20021;-62
2021/08/29 05:50:44;;;;;;;4.55;1.60;;;16.70;95.20;;;;;;5053176;28;20075;-62
2021/08/29 05:54:07;;;;;;;4.65;1.98;;;16.70;95.20;;;;;;5064728;28;20452;-62
2021/08/29 05:56:33;;;;;;;5.57;1.65;;;16.80;95.10;;;;;;5055761;28;20044;-62
2021/08/29 05:58:58;;;;;;;4.88;1.80;;;16.80;95.40;;;;;;5073652;28;20024;-62
2021/08/29 06:01:24;;;;;;;5.10;1.60;;;16.80;95.40;;;;;;5055498;28;20484;-62
2021/08/29 06:03:49;;;;;;;6.22;2.00;;;16.90;95.40;;;;;;5072851;28;20028;-62
2021/08/29 06:06:15;;;;;;;4.90;1.58;;;16.90;95.40;;;;;;5072975;28;20017;-62
2021/08/29 06:08:41;;;;;;;5.50;2.10;;;16.90;95.40;;;;;;5072840;28;20035;-62
2021/08/29 06:11:08;;;;;;;3.35;1.20;;;16.90;95.40;;;;;;5072829;28;20049;-63
2021/08/29 06:13:34;;;;;;;4.00;1.73;;;17.00;95.40;;;;;;5072465;28;20009;-62
2021/08/29 06:16:00;;;;;;;4.63;1.60;;;17.00;95.50;;;;;;5054508;28;20435;-62
2021/08/29 06:18:26;;;;;;;7.63;2.05;;;17.00;95.50;;;;;;5072696;28;20066;-62
2021/08/29 06:20:51;;;;;;;4.07;1.27;;;17.00;95.50;;;;;;5071763;28;20044;-62
2021/08/29 06:23:17;;;;;;;8.77;1.98;;;17.00;95.50;;;;;;5053323;28;20027;-63
2021/08/29 06:25:42;;;;;;;5.85;1.55;;;17.00;95.60;;;;;;5071353;28;20029;-62
2021/08/29 06:28:28;;;;;;;;;;;;;;;;;;;;;
2021/08/29 06:30:53;;;;;;;8.00;2.50;;;17.00;95.60;;;;;;5071499;28;20392;-63
2021/08/29 06:33:19;;;;;;;5.13;2.22;;;17.00;95.60;;;;;;5053682;28;20103;-62
2021/08/29 06:35:44;;;;;;;5.53;1.88;;;17.10;95.60;;;;;;5071577;28;20034;-62
2021/08/29 06:38:10;;;;;;;5.40;1.80;;;17.10;95.50;;;;;;5071494;28;20028;-62
2021/08/29 06:40:35;;;;;;;4.72;1.50;;;17.00;95.50;;;;;;5071733;28;20099;-62
2021/08/29 06:43:01;;;;;;;7.28;1.85;;;17.10;95.50;;;;;;5053671;28;20287;-63
2021/08/29 06:45:27;;;;;;;6.32;1.67;;;17.10;95.50;;;;;;5053330;28;20047;-62
2021/08/29 06:47:52;;;;;;;5.47;1.83;;;17.10;95.50;;;;;;5071859;28;20488;-62
2021/08/29 06:50:18;;;;;;;6.13;1.88;;;17.10;95.50;;;;;;5053944;28;20031;-63
2021/08/29 06:52:44;;;;;;;4.15;1.27;;;17.10;95.50;;;;;;5054088;28;20044;-63
2021/08/29 06:55:10;;;;;;;6.30;1.50;;;17.10;95.40;;;;;;5053914;28;20093;-62
2021/08/29 06:57:35;;;;;;;6.70;1.60;;;17.10;95.40;;;;;;5066101;28;20032;-62
2021/08/29 07:00:01;;;;;;;8.00;1.63;;;17.10;95.30;;;;;;5071579;28;20029;-62
2021/08/29 07:02:28;;;;;;;9.75;2.35;;;17.20;95.30;;;;;;5072713;28;20031;-63
2021/08/29 07:04:54;;;;;;;5.50;1.70;;;17.20;95.20;;;;;;5072810;28;20150;-62
2021/08/29 07:07:19;;;;;;;3.65;1.35;;;17.20;95.20;;;;;;5072785;28;20104;-62
2021/08/29 07:09:45;;;;;;;4.78;1.33;;;17.30;95.10;;;;;;5071451;28;20024;-62
2021/08/29 07:12:11;;;;;;;4.75;1.90;;;17.30;95.10;;;;;;5071340;28;20025;-62
2021/08/29 07:14:37;;;;;;;4.95;1.65;;;17.30;95.10;;;;;;5072752;28;20036;-62
2021/08/29 07:17:47;;;;;;;7.82;1.98;;;17.40;95.10;;;;;;5072465;28;20035;-62
2021/08/29 07:20:59;;;;;;;4.13;1.65;;;17.40;95.00;;;;;;5071263;28;20040;-63
2021/08/29 07:23:26;;;;;;;7.57;1.77;;;17.40;95.00;;;;;;5071078;28;20162;-62
2021/08/29 07:25:52;;;;;;;5.15;1.60;;;17.40;95.10;;;;;;5082838;28;20020;-63
2021/08/29 07:28:18;;;;;;;6.28;1.52;;;17.50;95.00;;;;;;5096756;28;20388;-62
2021/08/29 07:30:43;;;;;;;6.88;1.85;;;17.50;95.00;;;;;;5088813;28;20484;-62
2021/08/29 07:33:09;;;;;;;8.30;1.88;;;17.60;95.00;;;;;;5075807;28;20507;-63
2021/08/29 07:35:34;;;;;;;5.25;1.73;;;17.70;94.90;;;;;;5074758;28;20025;-62
2021/08/29 07:38:00;;;;;;;4.93;1.67;;;17.70;94.90;;;;;;5075124;28;20024;-63
2021/08/29 07:40:26;;;;;;;5.35;1.42;;;17.70;94.80;;;;;;5076391;28;20082;-62
2021/08/29 07:42:52;;;;;;;5.13;1.48;;;17.80;94.80;;;;;;5076285;28;20020;-63
2021/08/29 07:45:17;;;;;;;4.82;1.55;;;17.80;94.80;;;;;;5076075;28;20023;-62
2021/08/29 07:47:43;;;;;;;5.60;1.60;;;17.80;94.80;;;;;;5058243;28;20107;-62
2021/08/29 07:50:09;;;;;;;4.20;1.23;;;17.80;94.80;;;;;;5074924;28;20021;-62
2021/08/29 07:52:34;;;;;;;7.82;1.48;;;17.90;94.80;;;;;;5076288;28;20025;-62
2021/08/29 07:55:00;;;;;;;5.38;1.20;;;17.80;94.80;;;;;;5057871;28;20463;-62
2021/08/29 07:57:25;;;;;;;4.63;1.33;;;17.80;94.80;;;;;;5076057;28;20063;-62
2021/08/29 07:59:51;;;;;;;5.57;1.50;;;17.80;94.80;;;;;;5075042;28;20036;-62
2021/08/29 08:02:16;;;;;;;7.20;1.70;;;17.80;94.80;;;;;;5056992;28;20077;-62
2021/08/29 08:04:43;;;;;;;6.28;1.55;;;17.80;94.80;;;;;;5057277;28;20357;-62
2021/08/29 08:07:09;;;;;;;5.90;1.98;;;17.80;94.80;;;;;;5076125;28;20361;-62
2021/08/29 08:09:34;;;;;;;4.07;1.23;;;17.80;94.80;;;;;;5076195;28;20146;-62
2021/08/29 08:12:00;;;;;;;4.65;1.55;;;17.80;94.80;;;;;;5075572;28;20032;-62
2021/08/29 08:14:25;;;;;;;8.45;1.80;;;17.70;94.80;;;;;;5075156;28;20047;-63
2021/08/29 08:16:51;;;;;;;6.97;2.00;;;17.70;94.90;;;;;;5056866;28;20027;-63
2021/08/29 08:19:16;;;;;;;4.72;1.50;;;17.70;95.00;;;;;;5075462;28;20028;-63
2021/08/29 08:21:42;;;;;;;7.78;2.53;;;17.60;95.10;;;;;;5075536;28;20078;-63
2021/08/29 08:24:51;;;;;;;5.55;1.98;;;17.60;95.30;;;;;;5075406;28;20366;-63
2021/08/29 08:27:16;;;;;;;6.45;1.92;;;17.50;95.50;;;;;;5075480;28;20020;-63
2021/08/29 08:29:42;;;;;;;5.38;1.92;;;17.40;95.70;;;;;;5057596;28;20025;-63
2021/08/29 08:32:07;;;;;;;6.20;1.63;;;17.40;95.80;;;;;;5075352;28;20050;-63
2021/08/29 08:34:44;;;;;;;7.47;1.65;;;17.50;96.00;;;;;;5075119;28;20515;-63
2021/08/29 08:37:09;;;;;;;4.10;1.45;;;17.50;96.00;;;;;;5057307;28;20024;-63
2021/08/29 08:39:35;;;;;;;6.47;1.27;;;17.50;96.00;;;;;;5075207;28;20160;-63
2021/08/29 08:42:00;;;;;;;4.18;1.40;;;17.60;95.90;;;;;;5057157;28;20115;-63
2021/08/29 08:44:26;;;;;;;5.50;1.60;;;17.60;95.90;;;;;;5074552;28;20024;-63
2021/08/29 08:46:55;;;;;;;3.70;1.10;;;17.60;95.90;;;;;;5074660;28;20413;-62
2021/08/29 08:49:22;;;;;;;5.90;2.15;;;17.60;95.90;;;;;;5073996;28;20023;-63
2021/08/29 08:51:51;;;;;;;4.75;1.20;;;17.50;95.90;;;;;;5074198;28;20039;-62
2021/08/29 08:54:18;;;;;;;7.50;1.45;;;17.60;95.90;;;;;;5074827;28;20055;-63
2021/08/29 08:56:44;;;;;;;5.93;1.73;;;17.50;95.90;;;;;;5056761;28;20400;-63
2021/08/29 08:59:10;;;;;;;8.35;1.88;;;17.50;95.90;;;;;;5074902;28;20027;-63
2021/08/29 09:01:36;;;;;;;7.40;1.40;;;17.50;95.90;;;;;;5056103;28;20024;-63
2021/08/29 09:04:02;;;;;;;3.72;1.20;;;17.60;96.00;;;;;;5056312;28;20499;-63
2021/08/29 09:06:32;;;;;;;7.47;1.80;;;17.60;96.00;;;;;;5074666;28;20017;-63
2021/08/29 09:08:58;;;;;;;;;;;17.60;96.00;;;;;;5056963;28;20089;-62
2021/08/29 09:11:23;;;;;;;4.32;1.38;;;17.60;96.00;;;;;;5056011;28;19908;-63
2021/08/29 09:13:49;;;;;;;5.60;1.65;;;17.50;96.20;;;;;;5056014;28;20024;-62
2021/08/29 09:16:17;;;;;;;4.35;1.88;;;17.40;96.20;;;;;;5055864;28;20025;-63
2021/08/29 09:18:47;;;;;;;6.18;1.65;;;17.40;96.30;;;;;;5070649;28;20369;-63
2021/08/29 09:21:35;;;;;;;;;;;17.40;96.40;;;;;;5074599;28;20020;-63
2021/08/29 09:24:06;;;;;;;7.07;1.95;;;17.40;96.40;;;;;;5055294;28;20011;-63
2021/08/29 09:26:32;;;;;;;3.78;1.60;;;17.30;96.50;;;;;;5055715;28;20028;-63
2021/08/29 09:28:59;;;;;;;2.38;1.10;;;17.40;96.50;;;;;;5055779;28;20502;-63
2021/08/29 09:31:45;;;;;;;3.03;1.10;;;17.50;96.40;;;;;;5073031;28;20025;-63
2021/08/29 09:34:11;;;;;;;2.60;1.10;;;17.60;96.30;;;;;;5056409;28;20499;-63
2021/08/29 09:36:40;;;;;;;3.53;1.13;;;17.60;96.40;;;;;;5070624;28;20102;-62
2021/08/29 09:39:16;;;;;;;5.13;1.38;;;17.60;96.30;;;;;;5055465;28;20032;-63
2021/08/29 09:41:43;;;;;;;4.45;1.15;;;17.60;96.30;;;;;;5073298;28;20033;-63
2021/08/29 09:44:10;;;;;;;4.80;1.40;;;17.70;96.30;;;;;;5072552;28;20108;-63
2021/08/29 09:46:58;;;;;;;6.82;1.80;;;17.70;96.40;;;;;;5073379;28;20073;-62
2021/08/29 09:49:25;;;;;;;2.65;1.10;;;17.70;96.40;;;;;;5075495;28;20021;-63
2021/08/29 09:51:51;;;;;;;3.85;1.40;;;17.70;96.50;;;;;;5073793;28;20055;-62
2021/08/29 09:54:35;;;;;;;4.65;1.33;;;17.70;96.50;;;;;;5072903;28;20539;-62
2021/08/29 09:57:36;;;;;;;5.47;1.50;;;17.70;96.50;;;;;;5056269;28;20439;-62
2021/08/29 10:00:25;;;;;;;4.32;1.70;;;17.70;96.50;;;;;;5066772;28;20081;-62
2021/08/29 10:07:16;;;;;;;6.28;1.50;;;17.70;96.60;;;;;;4985634;28;20081;-62
2021/08/29 10:09:43;;;;;;;4.15;1.42;;;17.60;96.80;;;;;;5011325;28;20032;-62
2021/08/29 10:12:09;;;;;;;4.88;1.23;;;17.60;96.90;;;;;;5066875;28;20384;-62
2021/08/29 10:14:37;;;;;;;4.10;1.52;;;17.60;96.90;;;;;;5066515;28;20026;-62
2021/08/29 10:17:04;;;;;;;4.93;1.10;;;17.60;97.10;;;;;;5077543;28;20112;-62
2021/08/29 10:19:30;;;;;;;4.82;1.40;;;17.70;96.80;;;;;;5089554;28;20107;-62
2021/08/29 10:21:57;;;;;;;5.78;1.33;;;17.70;96.80;;;;;;5061011;28;20028;-62
2021/08/29 10:24:27;;;;;;;5.70;1.67;;;17.70;96.80;;;;;;5082591;28;20063;-63
2021/08/29 10:26:54;;;;;;;4.63;1.27;;;17.70;96.80;;;;;;5060703;28;20048;-62
2021/08/29 10:29:37;;;;;;;7.32;2.17;;;17.70;96.80;;;;;;5089479;28;20032;-63
2021/08/29 10:32:18;;;;;;;4.63;1.63;;;17.70;96.80;;;;;;5061437;28;20032;-63
2021/08/29 10:34:44;;;;;;;5.60;1.42;;;17.80;96.90;;;;;;5079761;28;20021;-63
2021/08/29 10:37:10;;;;;;;5.30;1.33;;;17.70;96.90;;;;;;5054508;28;20473;-63
2021/08/29 10:39:56;;;;;;;;;;;;;;;;;;;;;
2021/08/29 10:46:11;;;;;;;5.45;1.38;;;17.70;96.90;;;;;;5025034;28;20028;-62
2021/08/29 10:48:42;;;;;;;4.75;1.40;;;17.70;97.20;;;;;;5080615;28;20025;-63
2021/08/29 10:51:10;;;;;;;5.28;1.13;;;17.70;97.20;;;;;;5070698;28;20073;-63
2021/08/29 10:53:40;;;;;;;3.00;1.05;;;17.70;97.20;;;;;;5066897;28;20013;-62
2021/08/29 10:56:14;;;;;;;;;;;17.70;97.20;;;;;;5075342;28;20028;-63
2021/08/29 10:59:07;;;;;;;4.03;0.95;;;17.70;97.20;;;;;;5078969;28;19909;-63
2021/08/29 11:01:44;;;;;;;5.95;1.73;;;17.60;97.40;;;;;;5069664;28;20036;-63
2021/08/29 11:04:18;;;;;;;6.20;1.60;;;17.60;97.50;;;;;;5080304;28;20024;-63
2021/08/29 11:06:51;;;;;;;2.80;1.17;;;17.60;97.50;;;;;;5061204;28;20028;-62
2021/08/29 11:09:29;;;;;;;2.88;0.90;;;17.70;97.50;;;;;;5055197;28;20495;-62
2021/08/29 11:11:55;;;;;;;3.65;1.10;;;17.70;97.50;;;;;;5086205;28;20032;-63
2021/08/29 11:14:40;;;;;;;4.55;1.33;;;17.70;97.50;;;;;;5063577;28;20028;-63
2021/08/29 11:17:10;;;;;;;4.78;1.08;;;17.80;97.40;;;;;;5075650;28;20074;-62
2021/08/29 11:19:50;;;;;;;3.85;1.25;;;17.80;97.60;;;;;;5040935;28;20017;-62
2021/08/29 11:22:17;;;;;;;3.33;1.05;;;17.80;97.60;;;;;;5064284;28;20029;-62
2021/08/29 11:25:02;;;;;;;3.42;1.08;;;17.80;97.70;;;;;;5084808;28;20468;-63
2021/08/29 11:27:34;;;;;;;2.97;0.98;;;17.80;97.60;;;;;;5057479;28;20111;-62
2021/08/29 11:30:00;;;;;;;2.33;1.10;;;17.80;97.70;;;;;;5085467;28;20032;-63
2021/08/29 11:32:40;;;;;;;4.00;1.20;;;17.80;97.70;;;;;;5064077;28;20453;-62
2021/08/29 11:35:23;;;;;;;3.97;1.10;;;17.80;97.70;;;;;;5076087;28;20032;-62
2021/08/29 11:38:23;;;;;;;4.15;1.20;;;17.80;97.80;;;;;;5044689;28;20074;-62
2021/08/29 11:40:59;;;;;;;4.03;1.00;;;17.90;97.70;;;;;;5078379;28;20465;-62
2021/08/29 11:43:27;;;;;;;2.75;1.00;;;17.90;97.80;;;;;;5074872;28;20078;-62
2021/08/29 11:45:58;;;;;;;3.28;1.38;;;17.90;97.80;;;;;;5054672;28;20021;-62
2021/08/29 11:48:25;;;;;;;2.35;1.00;;;17.90;97.70;;;;;;5081839;28;20542;-63
2021/08/29 11:50:51;;;;;;;2.85;1.02;;;18.00;97.80;;;;;;5078142;28;20496;-62
2021/08/29 11:53:17;;;;;;;4.20;1.00;;;18.00;97.80;;;;;;5077001;28;20024;-62
2021/08/29 11:56:04;;;;;;;;;;;;;;;;;;;;;
2021/08/29 11:58:30;;;;;;;3.67;0.93;;;18.00;97.80;;;;;;5082657;28;20425;-62
2021/08/29 12:01:04;;;;;;;2.78;1.13;;;17.90;97.90;;;;;;5092190;28;20099;-63
2021/08/29 12:03:32;;;;;;;2.60;1.05;;;17.90;97.90;;;;;;5076843;28;20025;-62
2021/08/29 12:06:05;;;;;;;2.30;0.80;;;18.00;98.00;;;;;;5077667;28;20391;-63
2021/08/29 12:08:50;;;;;;;4.05;1.15;;;18.00;98.00;;;;;;5062449;28;20429;-63
2021/08/29 12:11:17;;;;;;;2.72;1.00;;;18.10;97.90;;;;;;5046723;28;20040;-62
2021/08/29 12:13:42;;;;;;;3.72;0.90;;;18.00;98.00;;;;;;5079806;28;20110;-63
2021/08/29 12:16:09;;;;;;;3.25;1.25;;;18.00;98.10;;;;;;5068289;28;20124;-63
2021/08/29 12:18:39;;;;;;;4.15;1.17;;;18.00;98.00;;;;;;5068671;28;20028;-63
2021/08/29 12:21:09;;;;;;;2.20;1.08;;;18.10;98.00;;;;;;5079671;28;20031;-63
2021/08/29 12:23:37;;;;;;;3.20;1.15;;;18.10;98.00;;;;;;5090988;28;20513;-63
2021/08/29 12:26:11;;;;;;;2.85;0.90;;;18.10;98.10;;;;;;5082588;28;20016;-63
2021/08/29 12:28:37;;;;;;;2.75;1.00;;;18.10;98.10;;;;;;5063598;28;20029;-63
2021/08/29 12:31:04;;;;;;;2.60;0.90;;;18.10;98.20;;;;;;5074290;28;20025;-63
2021/08/29 12:33:30;;;;;;;2.75;0.93;;;18.10;98.10;;;;;;5078754;28;20476;-62
2021/08/29 12:36:35;;;;;;;;;;;;;;;;;;;;;
2021/08/29 12:40:42;;;;;;;1.77;0.68;;;18.20;98.00;;;;;;5076591;28;20035;-63
2021/08/29 12:42:48;;;;;;;2.35;0.88;;;18.20;98.00;;;;;;5078518;28;20035;-63
2021/08/29 12:45:16;;;;;;;1.90;0.52;;;18.20;98.40;;;;;;5077889;28;20384;-62
2021/08/29 12:47:46;;;;;;;2.03;0.95;;;18.20;98.00;;;;;;5077728;28;20442;-62
2021/08/29 12:50:15;;;;;;;1.60;0.82;;;18.20;98.00;;;;;;5074288;28;20031;-63
2021/08/29 12:52:43;;;;;;;;;;;18.20;98.10;;;;;;5057259;28;20021;-62
2021/08/29 12:55:15;;;;;;;1.73;0.60;;;18.20;98.10;;;;;;5057012;28;19917;-62
2021/08/29 12:57:42;;;;;;;1.60;0.90;;;18.30;98.20;;;;;;5074881;28;20480;-63
2021/08/29 13:00:34;;;;;;;2.22;1.10;;;18.40;98.10;;;;;;5056930;28;20036;-62
2021/08/29 13:03:00;;;;;;;2.90;0.88;;;18.60;97.90;;;;;;5056759;28;20031;-62
2021/08/29 13:05:41;;;;;;;2.72;1.10;;;18.60;97.90;;;;;;5056949;28;20025;-62
2021/08/29 13:08:18;;;;;;;1.95;0.98;;;18.70;97.90;;;;;;5074825;28;20035;-62
2021/08/29 13:11:04;;;;;;;2.75;1.20;;;18.70;97.90;;;;;;5057437;28;20090;-63
2021/08/29 13:20:16;;;;;;;2.50;1.30;;;18.90;97.70;;;;;;5032463;28;20032;-63